sensor_id;sensor_type;location;lat;lon;timestamp;temperature;humidity
37560;DHT22;23398;50.928;7.084;2023-02-19T07:29:26;9.10;99.90
37560;DHT22;23398;50.928;7.084;2023-02-19T07:31:51;9.10;99.90
37560;DHT22;23398;50.928;7.084;2023-02-19T07:34:17;9.30;99.90
37560;DHT22;23398;50.928;7.084;2023-02-19T07:36:43;9.70;99.90
37560;DHT22;23398;50.928;7.084;2023-02-19T07:39:11;10.00;99.90
37560;DHT22;23398;50.928;7.084;2023-02-19T07:41:37;10.40;99.90
37560;DHT22;23398;50.928;7.084;2023-02-19T07:44:03;10.70;99.90
37560;DHT22;23398;50.928;7.084;2023-02-19T07:46:29;11.00;99.90
37560;DHT22;23398;50.928;7.084;2023-02-19T07:48:54;11.30;99.90
37560;DHT22;23398;50.928;7.084;2023-02-19T07:51:21;11.50;99.90
37560;DHT22;23398;50.928;7.084;2023-02-19T07:53:50;11.70;99.90
37560;DHT22;23398;50.928;7.084;2023-02-19T07:56:16;11.90;99.90
37560;DHT22;23398;50.928;7.084;2023-02-19T07:58:42;12.00;99.90
37560;DHT22;23398;50.928;7.084;2023-02-19T08:01:10;12.20;99.80
37560;DHT22;23398;50.928;7.084;2023-02-19T08:03:37;12.30;99.50
37560;DHT22;23398;50.928;7.084;2023-02-19T08:06:03;12.40;99.40
37560;DHT22;23398;50.928;7.084;2023-02-19T08:08:29;12.50;99.30
37560;DHT22;23398;50.928;7.084;2023-02-19T08:10:59;12.60;99.20
37560;DHT22;23398;50.928;7.084;2023-02-19T08:13:43;12.70;99.30
37560;DHT22;23398;50.928;7.084;2023-02-19T08:16:11;12.70;99.20
37560;DHT22;23398;50.928;7.084;2023-02-19T08:18:38;12.80;99.30
37560;DHT22;23398;50.928;7.084;2023-02-19T08:21:03;12.90;99.30
37560;DHT22;23398;50.928;7.084;2023-02-19T08:23:29;13.00;99.30
37560;DHT22;23398;50.928;7.084;2023-02-19T08:25:59;13.00;99.20
37560;DHT22;23398;50.928;7.084;2023-02-19T08:28:25;13.10;98.90
37560;DHT22;23398;50.928;7.084;2023-02-19T08:30:51;13.10;98.60
37560;DHT22;23398;50.928;7.084;2023-02-19T08:33:19;13.20;98.40
37560;DHT22;23398;50.928;7.084;2023-02-19T08:35:45;13.20;98.30
37560;DHT22;23398;50.928;7.084;2023-02-19T08:38:12;13.20;98.10
37560;DHT22;23398;50.928;7.084;2023-02-19T08:40:41;13.30;98.00
37560;DHT22;23398;50.928;7.084;2023-02-19T08:43:10;13.30;97.80
37560;DHT22;23398;50.928;7.084;2023-02-19T08:45:42;13.30;97.70
37560;DHT22;23398;50.928;7.084;2023-02-19T08:48:10;13.30;97.80
37560;DHT22;23398;50.928;7.084;2023-02-19T08:50:36;13.30;97.90
37560;DHT22;23398;50.928;7.084;2023-02-19T08:53:03;13.40;97.90
37560;DHT22;23398;50.928;7.084;2023-02-19T08:55:29;13.40;98.00
37560;DHT22;23398;50.928;7.084;2023-02-19T08:57:55;13.50;98.20
37560;DHT22;23398;50.928;7.084;2023-02-19T09:00:20;13.60;98.40
37560;DHT22;23398;50.928;7.084;2023-02-19T09:02:47;13.60;98.40
37560;DHT22;23398;50.928;7.084;2023-02-19T09:05:13;13.80;98.10
37560;DHT22;23398;50.928;7.084;2023-02-19T09:07:39;13.90;97.80
37560;DHT22;23398;50.928;7.084;2023-02-19T09:10:06;13.90;97.30
37560;DHT22;23398;50.928;7.084;2023-02-19T09:12:32;14.00;96.90
37560;DHT22;23398;50.928;7.084;2023-02-19T09:14:58;14.20;96.50
37560;DHT22;23398;50.928;7.084;2023-02-19T09:17:24;14.30;96.40
37560;DHT22;23398;50.928;7.084;2023-02-19T09:19:49;14.40;96.40
37560;DHT22;23398;50.928;7.084;2023-02-19T09:22:15;14.50;96.50
37560;DHT22;23398;50.928;7.084;2023-02-19T09:24:42;14.80;97.30
37560;DHT22;23398;50.928;7.084;2023-02-19T09:27:08;15.00;97.00
37560;DHT22;23398;50.928;7.084;2023-02-19T09:29:34;15.30;96.30
37560;DHT22;23398;50.928;7.084;2023-02-19T09:32:00;15.60;95.60
37560;DHT22;23398;50.928;7.084;2023-02-19T09:34:27;15.80;94.90
37560;DHT22;23398;50.928;7.084;2023-02-19T09:36:53;16.10;93.60
37560;DHT22;23398;50.928;7.084;2023-02-19T09:39:19;16.20;92.40
37560;DHT22;23398;50.928;7.084;2023-02-19T09:41:50;16.40;91.50
37560;DHT22;23398;50.928;7.084;2023-02-19T09:44:24;16.40;90.10
37560;DHT22;23398;50.928;7.084;2023-02-19T09:46:52;16.40;89.10
37560;DHT22;23398;50.928;7.084;2023-02-19T09:49:53;16.40;88.10
37560;DHT22;23398;50.928;7.084;2023-02-19T09:52:17;16.40;86.80
37560;DHT22;23398;50.928;7.084;2023-02-19T09:54:44;16.30;86.40
37560;DHT22;23398;50.928;7.084;2023-02-19T09:57:19;16.20;85.80
37560;DHT22;23398;50.928;7.084;2023-02-19T09:59:49;16.10;85.70
37560;DHT22;23398;50.928;7.084;2023-02-19T10:02:23;16.00;86.10
37560;DHT22;23398;50.928;7.084;2023-02-19T10:04:51;15.90;85.20
37560;DHT22;23398;50.928;7.084;2023-02-19T10:07:20;15.90;86.10
37560;DHT22;23398;50.928;7.084;2023-02-19T10:09:57;15.80;86.20
37560;DHT22;23398;50.928;7.084;2023-02-19T10:12:29;15.80;86.50
37560;DHT22;23398;50.928;7.084;2023-02-19T10:15:00;15.70;87.20
37560;DHT22;23398;50.928;7.084;2023-02-19T10:17:31;15.70;87.50
37560;DHT22;23398;50.928;7.084;2023-02-19T10:20:00;15.70;90.10
37560;DHT22;23398;50.928;7.084;2023-02-19T10:22:28;15.70;90.20
37560;DHT22;23398;50.928;7.084;2023-02-19T10:24:54;15.60;90.10
37560;DHT22;23398;50.928;7.084;2023-02-19T10:27:20;15.50;90.00
37560;DHT22;23398;50.928;7.084;2023-02-19T10:29:47;15.40;90.20
37560;DHT22;23398;50.928;7.084;2023-02-19T10:32:21;15.40;90.50
37560;DHT22;23398;50.928;7.084;2023-02-19T10:35:08;15.30;90.70
37560;DHT22;23398;50.928;7.084;2023-02-19T10:37:34;15.30;90.90
37560;DHT22;23398;50.928;7.084;2023-02-19T10:40:01;15.30;90.70
37560;DHT22;23398;50.928;7.084;2023-02-19T10:42:26;15.30;90.70
37560;DHT22;23398;50.928;7.084;2023-02-19T10:44:55;15.30;91.00
37560;DHT22;23398;50.928;7.084;2023-02-19T10:47:24;15.30;91.00
37560;DHT22;23398;50.928;7.084;2023-02-19T10:49:52;15.30;91.10
37560;DHT22;23398;50.928;7.084;2023-02-19T10:52:28;15.30;90.60
37560;DHT22;23398;50.928;7.084;2023-02-19T10:55:19;15.30;89.70
37560;DHT22;23398;50.928;7.084;2023-02-19T10:57:48;15.30;89.30
37560;DHT22;23398;50.928;7.084;2023-02-19T11:02:41;15.30;88.50
37560;DHT22;23398;50.928;7.084;2023-02-19T11:07:56;15.20;90.30
37560;DHT22;23398;50.928;7.084;2023-02-19T11:10:37;15.20;91.30
37560;DHT22;23398;50.928;7.084;2023-02-19T11:13:05;15.10;92.10
37560;DHT22;23398;50.928;7.084;2023-02-19T11:15:35;15.00;92.60
37560;DHT22;23398;50.928;7.084;2023-02-19T11:20:54;14.80;93.80
37560;DHT22;23398;50.928;7.084;2023-02-19T11:26:02;14.80;94.30
37560;DHT22;23398;50.928;7.084;2023-02-19T11:28:38;14.80;94.40
37560;DHT22;23398;50.928;7.084;2023-02-19T11:33:53;14.90;94.90
37560;DHT22;23398;50.928;7.084;2023-02-19T11:38:49;15.00;95.40
37560;DHT22;23398;50.928;7.084;2023-02-19T11:50:02;15.60;95.00
37560;DHT22;23398;50.928;7.084;2023-02-19T11:55:12;15.90;93.30
37560;DHT22;23398;50.928;7.084;2023-02-19T11:57:44;16.10;92.30
37560;DHT22;23398;50.928;7.084;2023-02-19T12:00:24;16.20;91.30
37560;DHT22;23398;50.928;7.084;2023-02-19T12:03:25;16.30;90.30
37560;DHT22;23398;50.928;7.084;2023-02-19T12:08:44;16.50;86.90
37560;DHT22;23398;50.928;7.084;2023-02-19T12:16:24;16.60;86.10
37560;DHT22;23398;50.928;7.084;2023-02-19T12:19:23;16.70;84.90
37560;DHT22;23398;50.928;7.084;2023-02-19T12:25:03;16.90;83.40
37560;DHT22;23398;50.928;7.084;2023-02-19T12:38:42;17.00;80.20
37560;DHT22;23398;50.928;7.084;2023-02-19T12:43:55;16.90;80.40
37560;DHT22;23398;50.928;7.084;2023-02-19T12:46:35;17.00;81.10
37560;DHT22;23398;50.928;7.084;2023-02-19T12:49:10;17.10;81.00
37560;DHT22;23398;50.928;7.084;2023-02-19T12:51:47;17.20;81.80
37560;DHT22;23398;50.928;7.084;2023-02-19T12:57:04;17.50;79.10
37560;DHT22;23398;50.928;7.084;2023-02-19T13:02:16;17.80;78.50
37560;DHT22;23398;50.928;7.084;2023-02-19T13:05:07;17.80;77.10
37560;DHT22;23398;50.928;7.084;2023-02-19T13:07:43;17.80;76.70
37560;DHT22;23398;50.928;7.084;2023-02-19T13:12:38;17.90;74.90
37560;DHT22;23398;50.928;7.084;2023-02-19T13:15:15;17.90;73.80
37560;DHT22;23398;50.928;7.084;2023-02-19T13:17:49;17.80;72.90
37560;DHT22;23398;50.928;7.084;2023-02-19T13:20:35;17.70;72.00
37560;DHT22;23398;50.928;7.084;2023-02-19T13:37:19;16.80;76.50
37560;DHT22;23398;50.928;7.084;2023-02-19T13:39:47;16.70;76.90
37560;DHT22;23398;50.928;7.084;2023-02-19T13:42:31;16.50;77.20
37560;DHT22;23398;50.928;7.084;2023-02-19T13:44:58;16.30;77.60
37560;DHT22;23398;50.928;7.084;2023-02-19T13:50:21;16.10;79.80
37560;DHT22;23398;50.928;7.084;2023-02-19T13:52:48;16.10;80.40
37560;DHT22;23398;50.928;7.084;2023-02-19T14:00:58;16.10;79.10
37560;DHT22;23398;50.928;7.084;2023-02-19T14:06:06;16.10;79.00
37560;DHT22;23398;50.928;7.084;2023-02-19T14:11:18;16.10;78.70
37560;DHT22;23398;50.928;7.084;2023-02-19T14:14:02;16.10;78.80
37560;DHT22;23398;50.928;7.084;2023-02-19T14:19:42;16.00;79.00
37560;DHT22;23398;50.928;7.084;2023-02-19T14:22:01;16.00;78.80
37560;DHT22;23398;50.928;7.084;2023-02-19T14:24:27;16.00;78.70
37560;DHT22;23398;50.928;7.084;2023-02-19T14:26:55;16.00;78.90
37560;DHT22;23398;50.928;7.084;2023-02-19T14:29:21;15.90;78.90
37560;DHT22;23398;50.928;7.084;2023-02-19T14:31:47;15.90;79.10
37560;DHT22;23398;50.928;7.084;2023-02-19T14:34:21;15.80;79.20
37560;DHT22;23398;50.928;7.084;2023-02-19T14:36:55;15.80;79.10
37560;DHT22;23398;50.928;7.084;2023-02-19T14:39:32;15.80;79.30
37560;DHT22;23398;50.928;7.084;2023-02-19T14:42:21;15.70;79.50
37560;DHT22;23398;50.928;7.084;2023-02-19T14:44:51;15.70;79.60
37560;DHT22;23398;50.928;7.084;2023-02-19T14:47:23;15.70;79.90
37560;DHT22;23398;50.928;7.084;2023-02-19T14:49:57;15.60;79.50
37560;DHT22;23398;50.928;7.084;2023-02-19T14:52:30;15.60;79.50
37560;DHT22;23398;50.928;7.084;2023-02-19T14:57:42;15.50;80.50
37560;DHT22;23398;50.928;7.084;2023-02-19T15:00:25;15.40;81.00
37560;DHT22;23398;50.928;7.084;2023-02-19T15:02:52;15.30;81.20
37560;DHT22;23398;50.928;7.084;2023-02-19T15:07:50;15.10;82.50
37560;DHT22;23398;50.928;7.084;2023-02-19T15:10:17;15.00;83.00
37560;DHT22;23398;50.928;7.084;2023-02-19T15:12:51;14.90;84.00
37560;DHT22;23398;50.928;7.084;2023-02-19T15:15:26;14.80;85.30
37560;DHT22;23398;50.928;7.084;2023-02-19T15:17:54;14.70;86.20
37560;DHT22;23398;50.928;7.084;2023-02-19T15:20:26;14.60;86.70
37560;DHT22;23398;50.928;7.084;2023-02-19T15:22:53;14.50;87.80
37560;DHT22;23398;50.928;7.084;2023-02-19T15:25:20;14.40;88.80
37560;DHT22;23398;50.928;7.084;2023-02-19T15:27:47;14.40;88.70
37560;DHT22;23398;50.928;7.084;2023-02-19T15:30:22;14.40;89.10
37560;DHT22;23398;50.928;7.084;2023-02-19T15:32:56;14.30;89.50
37560;DHT22;23398;50.928;7.084;2023-02-19T15:35:23;14.30;89.20
37560;DHT22;23398;50.928;7.084;2023-02-19T15:37:50;14.30;89.30
37560;DHT22;23398;50.928;7.084;2023-02-19T15:40:18;14.30;89.60
37560;DHT22;23398;50.928;7.084;2023-02-19T15:42:46;14.30;89.40
37560;DHT22;23398;50.928;7.084;2023-02-19T15:48:15;14.40;88.50
37560;DHT22;23398;50.928;7.084;2023-02-19T15:50:46;14.30;87.90
37560;DHT22;23398;50.928;7.084;2023-02-19T15:53:23;14.40;86.80
37560;DHT22;23398;50.928;7.084;2023-02-19T16:03:45;14.30;85.30
37560;DHT22;23398;50.928;7.084;2023-02-19T16:06:16;14.30;85.30
37560;DHT22;23398;50.928;7.084;2023-02-19T16:08:43;14.30;85.10
37560;DHT22;23398;50.928;7.084;2023-02-19T16:13:47;14.30;84.80
37560;DHT22;23398;50.928;7.084;2023-02-19T16:16:22;14.30;84.80
37560;DHT22;23398;50.928;7.084;2023-02-19T16:18:50;14.20;84.20
37560;DHT22;23398;50.928;7.084;2023-02-19T16:21:20;14.20;83.80
37560;DHT22;23398;50.928;7.084;2023-02-19T16:23:49;14.20;83.90
37560;DHT22;23398;50.928;7.084;2023-02-19T16:26:16;14.20;84.00
37560;DHT22;23398;50.928;7.084;2023-02-19T16:28:42;14.30;84.00
37560;DHT22;23398;50.928;7.084;2023-02-19T16:31:10;14.20;83.60
37560;DHT22;23398;50.928;7.084;2023-02-19T16:33:38;14.20;84.40
37560;DHT22;23398;50.928;7.084;2023-02-19T16:36:20;14.10;83.80
37560;DHT22;23398;50.928;7.084;2023-02-19T16:41:28;14.10;84.30
37560;DHT22;23398;50.928;7.084;2023-02-19T16:43:53;14.10;84.30
37560;DHT22;23398;50.928;7.084;2023-02-19T16:46:19;14.10;83.90
37560;DHT22;23398;50.928;7.084;2023-02-19T16:48:45;14.10;83.50
37560;DHT22;23398;50.928;7.084;2023-02-19T16:51:18;14.10;83.10
37560;DHT22;23398;50.928;7.084;2023-02-19T16:53:46;14.00;82.80
37560;DHT22;23398;50.928;7.084;2023-02-19T16:56:16;14.00;82.80
37560;DHT22;23398;50.928;7.084;2023-02-19T16:58:48;14.00;82.70
37560;DHT22;23398;50.928;7.084;2023-02-19T17:01:13;14.00;82.90
37560;DHT22;23398;50.928;7.084;2023-02-19T17:03:39;14.00;83.30
37560;DHT22;23398;50.928;7.084;2023-02-19T17:06:05;14.00;82.70
37560;DHT22;23398;50.928;7.084;2023-02-19T17:11:05;13.60;82.50
37560;DHT22;23398;50.928;7.084;2023-02-19T17:13:31;13.90;83.00
37560;DHT22;23398;50.928;7.084;2023-02-19T17:15:57;13.90;83.20
37560;DHT22;23398;50.928;7.084;2023-02-19T17:18:23;13.90;83.30
37560;DHT22;23398;50.928;7.084;2023-02-19T17:21:01;13.90;83.60
37560;DHT22;23398;50.928;7.084;2023-02-19T17:23:29;13.90;83.70
37560;DHT22;23398;50.928;7.084;2023-02-19T17:25:55;13.80;83.60
37560;DHT22;23398;50.928;7.084;2023-02-19T17:28:20;13.80;83.90
37560;DHT22;23398;50.928;7.084;2023-02-19T17:30:46;13.80;84.30
37560;DHT22;23398;50.928;7.084;2023-02-19T17:33:11;13.80;84.70
37560;DHT22;23398;50.928;7.084;2023-02-19T17:35:37;13.80;84.70
37560;DHT22;23398;50.928;7.084;2023-02-19T17:38:08;13.70;84.80
37560;DHT22;23398;50.928;7.084;2023-02-19T17:40:34;13.60;85.30
37560;DHT22;23398;50.928;7.084;2023-02-19T17:43:01;13.60;85.40
37560;DHT22;23398;50.928;7.084;2023-02-19T17:45:27;13.50;85.40
37560;DHT22;23398;50.928;7.084;2023-02-19T17:47:53;13.40;85.60
37560;DHT22;23398;50.928;7.084;2023-02-19T17:50:25;13.40;85.80
37560;DHT22;23398;50.928;7.084;2023-02-19T17:52:51;13.30;85.80
37560;DHT22;23398;50.928;7.084;2023-02-19T17:55:17;13.20;85.90
37560;DHT22;23398;50.928;7.084;2023-02-19T17:57:47;13.20;83.70
37560;DHT22;23398;50.928;7.084;2023-02-19T18:00:15;13.20;84.30
37560;DHT22;23398;50.928;7.084;2023-02-19T18:02:41;13.20;84.00
37560;DHT22;23398;50.928;7.084;2023-02-19T18:05:07;13.10;83.30
37560;DHT22;23398;50.928;7.084;2023-02-19T18:07:32;13.10;82.90
37560;DHT22;23398;50.928;7.084;2023-02-19T18:09:58;13.10;82.80
37560;DHT22;23398;50.928;7.084;2023-02-19T18:12:24;13.00;82.30
37560;DHT22;23398;50.928;7.084;2023-02-19T18:14:50;13.00;82.20
37560;DHT22;23398;50.928;7.084;2023-02-19T18:17:19;13.00;82.10
37560;DHT22;23398;50.928;7.084;2023-02-19T18:19:44;13.00;81.70
37560;DHT22;23398;50.928;7.084;2023-02-19T18:22:10;13.00;81.40
37560;DHT22;23398;50.928;7.084;2023-02-19T18:24:35;12.90;81.20
37560;DHT22;23398;50.928;7.084;2023-02-19T18:27:01;13.00;81.10
37560;DHT22;23398;50.928;7.084;2023-02-19T18:29:26;13.00;80.80
37560;DHT22;23398;50.928;7.084;2023-02-19T18:31:54;12.90;80.50
37560;DHT22;23398;50.928;7.084;2023-02-19T18:34:20;12.90;80.40
37560;DHT22;23398;50.928;7.084;2023-02-19T18:36:47;12.90;80.10
37560;DHT22;23398;50.928;7.084;2023-02-19T18:39:13;12.90;80.00
37560;DHT22;23398;50.928;7.084;2023-02-19T18:41:38;12.90;79.60
37560;DHT22;23398;50.928;7.084;2023-02-19T18:44:04;12.90;79.60
37560;DHT22;23398;50.928;7.084;2023-02-19T18:46:30;12.90;79.40
37560;DHT22;23398;50.928;7.084;2023-02-19T18:48:55;12.90;79.20
37560;DHT22;23398;50.928;7.084;2023-02-19T18:51:22;12.90;79.10
37560;DHT22;23398;50.928;7.084;2023-02-19T18:53:50;12.90;79.00
37560;DHT22;23398;50.928;7.084;2023-02-19T18:56:16;12.80;78.90
37560;DHT22;23398;50.928;7.084;2023-02-19T18:58:41;12.90;78.90
37560;DHT22;23398;50.928;7.084;2023-02-19T19:01:07;12.80;78.50
37560;DHT22;23398;50.928;7.084;2023-02-19T19:03:33;12.80;78.20
37560;DHT22;23398;50.928;7.084;2023-02-19T19:05:58;12.80;78.10
37560;DHT22;23398;50.928;7.084;2023-02-19T19:08:24;12.80;77.90
37560;DHT22;23398;50.928;7.084;2023-02-19T19:10:49;12.80;77.50
37560;DHT22;23398;50.928;7.084;2023-02-19T19:13:15;12.80;77.20
37560;DHT22;23398;50.928;7.084;2023-02-19T19:15:40;12.80;77.30
37560;DHT22;23398;50.928;7.084;2023-02-19T19:18:07;12.80;77.10
37560;DHT22;23398;50.928;7.084;2023-02-19T19:20:33;12.70;76.80
37560;DHT22;23398;50.928;7.084;2023-02-19T19:22:58;12.70;76.90
37560;DHT22;23398;50.928;7.084;2023-02-19T19:25:24;12.70;76.60
37560;DHT22;23398;50.928;7.084;2023-02-19T19:27:53;12.70;76.40
37560;DHT22;23398;50.928;7.084;2023-02-19T19:30:19;12.70;76.60
37560;DHT22;23398;50.928;7.084;2023-02-19T19:32:49;12.70;76.60
37560;DHT22;23398;50.928;7.084;2023-02-19T19:35:16;12.70;76.50
37560;DHT22;23398;50.928;7.084;2023-02-19T19:37:42;12.70;76.40
37560;DHT22;23398;50.928;7.084;2023-02-19T19:40:08;12.70;76.30
37560;DHT22;23398;50.928;7.084;2023-02-19T19:42:33;12.60;76.10
37560;DHT22;23398;50.928;7.084;2023-02-19T19:44:59;12.60;76.20
37560;DHT22;23398;50.928;7.084;2023-02-19T19:47:25;12.60;75.90
37560;DHT22;23398;50.928;7.084;2023-02-19T19:49:50;12.60;76.10
37560;DHT22;23398;50.928;7.084;2023-02-19T19:52:16;12.60;75.90
37560;DHT22;23398;50.928;7.084;2023-02-19T19:54:42;12.60;75.70
37560;DHT22;23398;50.928;7.084;2023-02-19T19:57:07;12.60;75.40
37560;DHT22;23398;50.928;7.084;2023-02-19T19:59:33;12.60;75.40
37560;DHT22;23398;50.928;7.084;2023-02-19T20:01:59;12.60;75.30
37560;DHT22;23398;50.928;7.084;2023-02-19T20:04:27;12.60;76.00
37560;DHT22;23398;50.928;7.084;2023-02-19T20:06:53;12.60;75.20
37560;DHT22;23398;50.928;7.084;2023-02-19T20:09:19;12.50;75.10
37560;DHT22;23398;50.928;7.084;2023-02-19T20:11:50;12.50;74.80
37560;DHT22;23398;50.928;7.084;2023-02-19T20:14:18;12.50;74.80
37560;DHT22;23398;50.928;7.084;2023-02-19T20:16:44;12.50;74.70
37560;DHT22;23398;50.928;7.084;2023-02-19T20:19:12;12.50;74.70
37560;DHT22;23398;50.928;7.084;2023-02-19T20:21:37;12.50;74.70
37560;DHT22;23398;50.928;7.084;2023-02-19T20:24:03;12.50;74.70
37560;DHT22;23398;50.928;7.084;2023-02-19T20:26:29;12.40;74.50
37560;DHT22;23398;50.928;7.084;2023-02-19T20:28:56;12.40;74.10
37560;DHT22;23398;50.928;7.084;2023-02-19T20:31:22;12.40;74.10
37560;DHT22;23398;50.928;7.084;2023-02-19T20:33:48;12.40;74.10
37560;DHT22;23398;50.928;7.084;2023-02-19T20:36:15;12.40;74.00
37560;DHT22;23398;50.928;7.084;2023-02-19T20:38:41;12.40;74.10
37560;DHT22;23398;50.928;7.084;2023-02-19T20:41:09;12.40;74.00
37560;DHT22;23398;50.928;7.084;2023-02-19T20:43:35;12.30;74.10
37560;DHT22;23398;50.928;7.084;2023-02-19T20:46:01;12.30;74.10
37560;DHT22;23398;50.928;7.084;2023-02-19T20:48:26;12.30;74.20
37560;DHT22;23398;50.928;7.084;2023-02-19T20:50:52;12.30;74.30
37560;DHT22;23398;50.928;7.084;2023-02-19T20:53:24;12.30;74.40
37560;DHT22;23398;50.928;7.084;2023-02-19T20:55:50;12.20;74.30
37560;DHT22;23398;50.928;7.084;2023-02-19T20:58:16;12.20;74.20
37560;DHT22;23398;50.928;7.084;2023-02-19T21:00:42;12.20;74.30
37560;DHT22;23398;50.928;7.084;2023-02-19T21:03:07;12.20;74.50
37560;DHT22;23398;50.928;7.084;2023-02-19T21:05:36;12.10;74.40
37560;DHT22;23398;50.928;7.084;2023-02-19T21:08:02;12.10;74.40
37560;DHT22;23398;50.928;7.084;2023-02-19T21:10:27;12.10;74.40
37560;DHT22;23398;50.928;7.084;2023-02-19T21:12:53;12.00;74.00
37560;DHT22;23398;50.928;7.084;2023-02-19T21:15:21;12.00;73.80
37560;DHT22;23398;50.928;7.084;2023-02-19T21:17:46;11.90;73.60
37560;DHT22;23398;50.928;7.084;2023-02-19T21:20:13;11.90;73.60
37560;DHT22;23398;50.928;7.084;2023-02-19T21:22:39;11.90;73.60
37560;DHT22;23398;50.928;7.084;2023-02-19T21:25:05;11.80;73.30
37560;DHT22;23398;50.928;7.084;2023-02-19T21:27:30;11.80;73.20
37560;DHT22;23398;50.928;7.084;2023-02-19T21:29:56;11.70;73.10
37560;DHT22;23398;50.928;7.084;2023-02-19T21:32:21;11.60;72.90
37560;DHT22;23398;50.928;7.084;2023-02-19T21:34:47;11.60;72.90
37560;DHT22;23398;50.928;7.084;2023-02-19T21:37:13;11.50;73.50
37560;DHT22;23398;50.928;7.084;2023-02-19T21:39:38;11.40;72.80
37560;DHT22;23398;50.928;7.084;2023-02-19T21:42:04;11.30;72.70
37560;DHT22;23398;50.928;7.084;2023-02-19T21:44:30;11.30;72.80
37560;DHT22;23398;50.928;7.084;2023-02-19T21:46:55;11.20;73.10
37560;DHT22;23398;50.928;7.084;2023-02-19T21:49:21;11.10;73.20
37560;DHT22;23398;50.928;7.084;2023-02-19T21:51:47;11.00;73.30
37560;DHT22;23398;50.928;7.084;2023-02-19T21:54:16;10.90;73.60
37560;DHT22;23398;50.928;7.084;2023-02-19T21:56:42;10.90;73.80
37560;DHT22;23398;50.928;7.084;2023-02-19T21:59:08;10.80;74.10
37560;DHT22;23398;50.928;7.084;2023-02-19T22:01:35;10.70;74.20
37560;DHT22;23398;50.928;7.084;2023-02-19T22:04:06;10.70;74.50
37560;DHT22;23398;50.928;7.084;2023-02-19T22:06:32;10.60;74.70
37560;DHT22;23398;50.928;7.084;2023-02-19T22:08:58;10.50;74.90
37560;DHT22;23398;50.928;7.084;2023-02-19T22:11:24;10.50;75.00
37560;DHT22;23398;50.928;7.084;2023-02-19T22:13:50;10.40;75.10
37560;DHT22;23398;50.928;7.084;2023-02-19T22:16:16;9.70;75.80
37560;DHT22;23398;50.928;7.084;2023-02-19T22:18:53;10.30;75.40
37560;DHT22;23398;50.928;7.084;2023-02-19T22:21:21;10.30;75.60
37560;DHT22;23398;50.928;7.084;2023-02-19T22:23:48;10.20;75.70
37560;DHT22;23398;50.928;7.084;2023-02-19T22:26:26;10.10;75.70
37560;DHT22;23398;50.928;7.084;2023-02-19T22:28:54;10.00;76.00
37560;DHT22;23398;50.928;7.084;2023-02-19T22:31:21;10.00;76.10
37560;DHT22;23398;50.928;7.084;2023-02-19T22:33:47;9.90;77.40
37560;DHT22;23398;50.928;7.084;2023-02-19T22:36:22;9.90;77.70
37560;DHT22;23398;50.928;7.084;2023-02-19T22:38:48;9.80;78.00
37560;DHT22;23398;50.928;7.084;2023-02-19T22:41:15;9.70;78.00
37560;DHT22;23398;50.928;7.084;2023-02-19T22:43:41;9.60;78.10
37560;DHT22;23398;50.928;7.084;2023-02-19T22:46:09;9.60;78.50
37560;DHT22;23398;50.928;7.084;2023-02-19T22:48:36;9.50;78.80
37560;DHT22;23398;50.928;7.084;2023-02-19T22:51:01;9.40;79.10
37560;DHT22;23398;50.928;7.084;2023-02-19T22:53:27;9.40;79.50
37560;DHT22;23398;50.928;7.084;2023-02-19T22:55:53;9.30;79.70
37560;DHT22;23398;50.928;7.084;2023-02-19T22:58:18;9.20;79.90
37560;DHT22;23398;50.928;7.084;2023-02-19T23:00:44;9.20;80.30
37560;DHT22;23398;50.928;7.084;2023-02-19T23:03:09;9.10;80.60
37560;DHT22;23398;50.928;7.084;2023-02-19T23:05:35;9.10;80.90
37560;DHT22;23398;50.928;7.084;2023-02-19T23:08:01;9.00;81.00
37560;DHT22;23398;50.928;7.084;2023-02-19T23:10:26;9.00;81.00
37560;DHT22;23398;50.928;7.084;2023-02-19T23:12:52;8.90;81.10
37560;DHT22;23398;50.928;7.084;2023-02-19T23:15:18;8.90;81.50
37560;DHT22;23398;50.928;7.084;2023-02-19T23:17:44;8.80;81.90
37560;DHT22;23398;50.928;7.084;2023-02-19T23:20:09;8.80;81.90
37560;DHT22;23398;50.928;7.084;2023-02-19T23:22:35;8.80;82.10
37560;DHT22;23398;50.928;7.084;2023-02-19T23:25:01;8.70;82.40
37560;DHT22;23398;50.928;7.084;2023-02-19T23:27:27;8.70;82.90
37560;DHT22;23398;50.928;7.084;2023-02-19T23:29:54;8.60;83.20
37560;DHT22;23398;50.928;7.084;2023-02-19T23:32:20;8.60;83.30
37560;DHT22;23398;50.928;7.084;2023-02-19T23:34:50;8.60;83.30
37560;DHT22;23398;50.928;7.084;2023-02-19T23:37:16;8.50;83.50
37560;DHT22;23398;50.928;7.084;2023-02-19T23:39:42;8.50;83.90
37560;DHT22;23398;50.928;7.084;2023-02-19T23:42:13;8.40;83.70
37560;DHT22;23398;50.928;7.084;2023-02-19T23:44:39;8.40;83.60
37560;DHT22;23398;50.928;7.084;2023-02-19T23:47:05;8.30;83.00
37560;DHT22;23398;50.928;7.084;2023-02-19T23:49:31;8.90;83.70
37560;DHT22;23398;50.928;7.084;2023-02-19T23:51:56;8.20;83.30
37560;DHT22;23398;50.928;7.084;2023-02-19T23:54:22;8.20;83.50
37560;DHT22;23398;50.928;7.084;2023-02-19T23:56:47;8.10;83.30
37560;DHT22;23398;50.928;7.084;2023-02-19T23:59:13;8.00;82.90
